Time;durP1;ratioP1;P1;durP2;ratioP2;P2;SDS_P1;SDS_P2;PMS_P1;PMS_P2;Temp;Humidity;BMP_temperature;BMP_pressure;BME280_temperature;BME280_humidity;BME280_pressure;Samples;Min_cycle;Max_cycle;Signal;HPM_P1;HPM_P2
2022/05/24 00:02:25;;;;;;;1.30;0.62;;;19.20;92.20;;;;;;4415419;32;20065;-69
2022/05/24 00:04:50;;;;;;;0.52;0.47;;;19.20;92.20;;;;;;4431223;32;20089;-69
2022/05/24 00:07:15;;;;;;;0.45;0.45;;;19.20;92.00;;;;;;4428013;32;20061;-69
2022/05/24 00:09:41;;;;;;;0.40;0.40;;;19.20;92.00;;;;;;4429509;32;20053;-69
2022/05/24 00:12:07;;;;;;;0.40;0.40;;;19.20;92.00;;;;;;4432189;32;20513;-69
2022/05/24 00:15:32;;;;;;;0.50;0.50;;;19.10;92.40;;;;;;4427983;32;20112;-70
2022/05/24 00:17:18;;;;;;;4.90;1.62;;;19.10;92.50;;;;;;4411400;32;20529;-69
2022/05/24 00:19:43;;;;;;;0.40;0.40;;;19.00;92.70;;;;;;4427909;32;20085;-69
2022/05/24 00:22:09;;;;;;;2.17;0.50;;;19.00;92.80;;;;;;4411807;32;20081;-69
2022/05/24 00:24:34;;;;;;;4.25;1.15;;;19.00;92.90;;;;;;4429007;32;20069;-69
2022/05/24 00:27:00;;;;;;;0.43;0.43;;;19.00;93.10;;;;;;4426339;32;20057;-69
2022/05/24 00:29:26;;;;;;;0.60;0.60;;;19.00;92.80;;;;;;4411691;32;20516;-69
2022/05/24 00:31:52;;;;;;;0.40;0.40;;;18.90;92.90;;;;;;4413585;32;20069;-69
2022/05/24 00:34:18;;;;;;;0.35;0.35;;;19.00;92.80;;;;;;4431104;32;20124;-69
2022/05/24 00:36:43;;;;;;;0.30;0.30;;;19.00;93.00;;;;;;4427968;32;20082;-69
2022/05/24 00:39:09;;;;;;;0.32;0.32;;;19.00;93.20;;;;;;4429091;32;20061;-69
2022/05/24 00:41:41;;;;;;;0.40;0.40;;;19.00;93.10;;;;;;4430872;32;20073;-69
2022/05/24 00:44:10;;;;;;;0.50;0.50;;;19.10;93.00;;;;;;4421441;32;20541;-69
2022/05/24 00:46:44;;;;;;;2.22;1.12;;;19.00;93.10;;;;;;4428118;32;20090;-69
2022/05/24 00:49:41;;;;;;;0.70;0.55;;;19.00;93.30;;;;;;4427716;32;20555;-69
2022/05/24 00:52:15;;;;;;;0.35;0.35;;;18.90;93.20;;;;;;4401067;32;20068;-68
2022/05/24 00:54:42;;;;;;;0.45;0.45;;;18.90;93.40;;;;;;4417918;32;20089;-69
2022/05/24 00:57:17;;;;;;;0.65;0.65;;;18.90;93.50;;;;;;4411519;32;20509;-69
2022/05/24 00:59:54;;;;;;;0.43;0.43;;;18.80;93.70;;;;;;4404986;32;20426;-69
2022/05/24 01:02:19;;;;;;;0.40;0.40;;;18.70;93.90;;;;;;4423771;32;20113;-69
2022/05/24 01:04:45;;;;;;;0.30;0.30;;;18.70;93.90;;;;;;4428862;32;20493;-68
2022/05/24 01:07:11;;;;;;;0.52;0.35;;;18.70;93.90;;;;;;4426048;32;20101;-69
2022/05/24 01:09:42;;;;;;;0.30;0.30;;;18.70;93.90;;;;;;4426427;32;20082;-69
2022/05/24 01:12:13;;;;;;;0.30;0.30;;;18.80;94.00;;;;;;4426548;32;20064;-69
2022/05/24 01:14:39;;;;;;;0.40;0.40;;;18.80;94.00;;;;;;4429245;32;20108;-69
2022/05/24 01:17:05;;;;;;;0.30;0.30;;;18.80;94.10;;;;;;4428404;32;20073;-69
2022/05/24 01:19:40;;;;;;;0.20;0.20;;;18.80;93.90;;;;;;4428608;32;20144;-69
2022/05/24 01:22:40;;;;;;;0.40;0.40;;;18.80;94.20;;;;;;4427105;32;20074;-69
2022/05/24 01:25:36;;;;;;;6.37;0.73;;;18.80;94.30;;;;;;4415431;32;20123;-69
2022/05/24 01:28:06;;;;;;;0.30;0.30;;;18.80;94.30;;;;;;4413812;32;20083;-70
2022/05/24 01:30:31;;;;;;;0.80;0.60;;;18.70;94.50;;;;;;4410793;32;20082;-69
2022/05/24 01:36:15;;;;;;;0.30;0.30;;;18.60;94.90;;;;;;4399074;32;20073;-69
2022/05/24 01:38:28;;;;;;;0.47;0.40;;;18.50;95.20;;;;;;4414794;32;20086;-69
2022/05/24 01:40:55;;;;;;;0.32;0.32;;;18.60;94.90;;;;;;4426312;32;20065;-69
2022/05/24 01:43:22;;;;;;;0.35;0.35;;;18.50;95.30;;;;;;4427406;32;20073;-69
2022/05/24 01:45:55;;;;;;;0.52;0.52;;;18.40;95.40;;;;;;4418311;32;20077;-69
2022/05/24 01:48:27;;;;;;;13.52;2.40;;;18.40;95.70;;;;;;4429222;32;20137;-69
2022/05/24 01:50:55;;;;;;;0.77;0.65;;;18.30;96.30;;;;;;4429165;32;20084;-69
2022/05/24 01:53:26;;;;;;;0.57;0.50;;;18.30;96.60;;;;;;4426235;32;20078;-69
2022/05/24 01:55:55;;;;;;;0.45;0.45;;;18.30;96.90;;;;;;4426829;32;20116;-69
2022/05/24 01:58:26;;;;;;;0.65;0.65;;;18.10;97.40;;;;;;4415490;32;20593;-69
2022/05/24 02:00:58;;;;;;;0.50;0.50;;;18.10;97.70;;;;;;4412897;32;20126;-69
2022/05/24 02:03:24;;;;;;;1.05;0.68;;;18.10;97.70;;;;;;4413956;32;20123;-68
2022/05/24 02:05:49;;;;;;;0.40;0.40;;;18.00;98.00;;;;;;4427034;32;20132;-69
2022/05/24 02:08:15;;;;;;;0.37;0.37;;;18.00;97.90;;;;;;4425995;32;20075;-70
2022/05/24 02:10:46;;;;;;;0.30;0.30;;;18.20;97.60;;;;;;4420534;32;20132;-69
2022/05/24 02:13:17;;;;;;;0.40;0.40;;;18.20;98.00;;;;;;4434370;32;20065;-69
2022/05/24 02:15:46;;;;;;;0.40;0.40;;;18.10;98.80;;;;;;4432372;32;20124;-69
2022/05/24 02:18:15;;;;;;;0.62;0.62;;;18.00;99.50;;;;;;4426057;32;20065;-69
2022/05/24 02:20:43;;;;;;;0.50;0.50;;;18.00;99.90;;;;;;4414769;32;20060;-68
2022/05/24 02:23:11;;;;;;;0.30;0.30;;;17.80;99.90;;;;;;4428179;32;20081;-68
2022/05/24 02:25:44;;;;;;;0.40;0.40;;;17.70;99.90;;;;;;4425710;32;20078;-68
2022/05/24 02:28:11;;;;;;;0.47;0.47;;;17.70;99.90;;;;;;4404724;32;20090;-69
2022/05/24 02:30:43;;;;;;;0.52;0.52;;;17.80;99.90;;;;;;4412292;32;20575;-69
2022/05/24 02:33:08;;;;;;;0.30;0.30;;;17.80;99.90;;;;;;4427937;32;20069;-68
2022/05/24 02:35:34;;;;;;;0.75;0.55;;;17.80;99.90;;;;;;4430588;32;20061;-68
2022/05/24 02:37:59;;;;;;;0.30;0.30;;;17.80;99.90;;;;;;4430456;32;20080;-68
2022/05/24 02:41:28;;;;;;;0.30;0.30;;;17.80;99.90;;;;;;4430184;32;20073;-68
2022/05/24 02:43:10;;;;;;;0.70;0.70;;;17.70;99.90;;;;;;4414576;32;20422;-68
2022/05/24 02:45:36;;;;;;;0.37;0.37;;;17.80;99.90;;;;;;4427297;32;20082;-70
2022/05/24 02:48:01;;;;;;;0.30;0.30;;;17.80;99.90;;;;;;4429673;32;20065;-68
2022/05/24 02:50:27;;;;;;;0.50;0.50;;;17.80;99.90;;;;;;4436527;32;20123;-68
2022/05/24 02:52:52;;;;;;;1.55;0.40;;;17.80;99.90;;;;;;4429433;32;20108;-68
2022/05/24 02:55:18;;;;;;;0.47;0.47;;;17.70;99.90;;;;;;4433149;32;20072;-68
2022/05/24 02:57:44;;;;;;;0.50;0.50;;;17.80;99.90;;;;;;4424151;32;20601;-68
2022/05/24 03:00:13;;;;;;;0.32;0.32;;;17.70;99.90;;;;;;4408055;32;20064;-69
2022/05/24 03:02:39;;;;;;;2.22;0.77;;;17.50;99.90;;;;;;4422529;32;20584;-68
2022/05/24 03:05:07;;;;;;;0.47;0.47;;;17.40;99.90;;;;;;4430733;32;20077;-69
2022/05/24 03:09:35;;;;;;;0.60;0.60;;;17.20;99.90;;;;;;4428738;32;20069;-68
2022/05/24 03:10:18;;;;;;;0.40;0.40;;;17.10;99.90;;;;;;4407378;32;20541;-68
2022/05/24 03:14:15;;;;;;;0.60;0.60;;;17.10;99.90;;;;;;4424369;32;20078;-69
2022/05/24 03:15:29;;;;;;;0.30;0.30;;;17.00;99.90;;;;;;4419742;32;20085;-68
2022/05/24 03:17:55;;;;;;;0.40;0.40;;;17.00;99.90;;;;;;4428106;32;20074;-69
2022/05/24 03:20:20;;;;;;;0.40;0.37;;;17.00;99.90;;;;;;4423261;32;20089;-69
2022/05/24 03:22:46;;;;;;;0.30;0.30;;;16.90;99.90;;;;;;4429508;32;20076;-68
2022/05/24 03:25:13;;;;;;;0.40;0.40;;;16.90;99.90;;;;;;4434484;32;20115;-68
2022/05/24 03:27:39;;;;;;;0.57;0.57;;;16.80;99.90;;;;;;4423426;32;20127;-69
2022/05/24 03:30:06;;;;;;;0.98;0.50;;;16.80;99.90;;;;;;4410565;32;20077;-69
2022/05/24 03:32:33;;;;;;;15.43;2.15;;;16.80;99.90;;;;;;4422814;32;20584;-68
2022/05/24 03:35:02;;;;;;;3.10;0.60;;;16.80;99.90;;;;;;4433931;32;20061;-69
2022/05/24 03:37:28;;;;;;;0.85;0.77;;;16.80;99.90;;;;;;4432435;32;20427;-69
2022/05/24 03:39:53;;;;;;;0.57;0.57;;;16.80;99.90;;;;;;4430402;32;20068;-68
2022/05/24 03:42:19;;;;;;;0.55;0.55;;;16.70;99.90;;;;;;4430184;32;20187;-68
2022/05/24 03:44:44;;;;;;;1.15;1.05;;;16.70;99.90;;;;;;4428949;32;20070;-68
2022/05/24 03:47:10;;;;;;;0.40;0.40;;;16.80;99.90;;;;;;4428133;32;20078;-68
2022/05/24 03:49:35;;;;;;;0.95;0.62;;;16.80;99.90;;;;;;4429237;32;20076;-69
2022/05/24 03:52:00;;;;;;;0.40;0.40;;;16.90;99.90;;;;;;4428019;32;20073;-69
2022/05/24 03:54:26;;;;;;;0.35;0.35;;;16.90;99.90;;;;;;4430314;32;20061;-69
2022/05/24 03:58:07;;;;;;;0.50;0.50;;;16.90;99.90;;;;;;4431899;32;20168;-69
2022/05/24 03:59:37;;;;;;;0.52;0.52;;;16.90;99.90;;;;;;4397775;32;20608;-70
2022/05/24 04:02:02;;;;;;;0.50;0.50;;;17.00;99.90;;;;;;4420567;32;20073;-69
2022/05/24 04:04:29;;;;;;;0.52;0.52;;;16.90;99.90;;;;;;4434509;32;20089;-70
2022/05/24 04:06:54;;;;;;;0.32;0.32;;;16.80;99.90;;;;;;4431700;32;20103;-69
2022/05/24 04:09:20;;;;;;;2.95;1.00;;;16.70;99.90;;;;;;4428719;32;20090;-69
2022/05/24 04:11:45;;;;;;;0.70;0.70;;;16.70;99.90;;;;;;4429181;32;20077;-69
2022/05/24 04:14:11;;;;;;;4.35;0.40;;;16.70;99.90;;;;;;4432635;32;20061;-69
2022/05/24 04:16:36;;;;;;;0.50;0.50;;;16.70;99.90;;;;;;4427600;32;20549;-69
2022/05/24 04:19:02;;;;;;;0.62;0.62;;;16.70;99.90;;;;;;4430443;32;20065;-70
2022/05/24 04:21:27;;;;;;;0.73;0.73;;;16.80;99.90;;;;;;4417700;32;20097;-69
2022/05/24 04:23:53;;;;;;;0.43;0.43;;;16.80;99.90;;;;;;4380877;32;20720;-69
2022/05/24 04:26:19;;;;;;;0.85;0.65;;;16.80;99.90;;;;;;4374629;32;20520;-68
2022/05/24 04:28:44;;;;;;;0.90;0.90;;;16.80;99.90;;;;;;4373666;32;20251;-69
2022/05/24 04:31:10;;;;;;;0.40;0.40;;;16.80;99.90;;;;;;4370021;32;20331;-69
2022/05/24 04:33:36;;;;;;;2.40;0.50;;;16.80;99.90;;;;;;4373538;32;21253;-68
2022/05/24 04:36:01;;;;;;;0.50;0.50;;;16.70;99.90;;;;;;4416366;32;20058;-69
2022/05/24 04:38:27;;;;;;;0.80;0.77;;;16.90;99.90;;;;;;4427609;32;20062;-69
2022/05/24 04:42:25;;;;;;;1.30;1.00;;;17.00;99.90;;;;;;4427927;32;20070;-69
2022/05/24 04:43:38;;;;;;;0.40;0.40;;;16.90;99.90;;;;;;4415684;32;20086;-69
2022/05/24 04:46:04;;;;;;;1.58;0.82;;;16.80;99.90;;;;;;4426155;32;20074;-69
2022/05/24 04:48:30;;;;;;;13.85;0.80;;;16.80;99.90;;;;;;4426620;32;20065;-69
2022/05/24 04:50:57;;;;;;;0.40;0.40;;;16.60;99.90;;;;;;4427526;32;20132;-69
2022/05/24 04:53:25;;;;;;;2.62;1.08;;;16.70;99.90;;;;;;4393786;32;20764;-68
2022/05/24 04:55:51;;;;;;;0.80;0.70;;;16.70;99.90;;;;;;4373618;32;20081;-68
2022/05/24 04:58:17;;;;;;;0.55;0.50;;;16.70;99.90;;;;;;4416385;32;20061;-68
2022/05/24 05:00:43;;;;;;;0.60;0.60;;;16.70;99.90;;;;;;4404848;32;20094;-68
2022/05/24 05:03:10;;;;;;;2.65;1.35;;;16.80;99.90;;;;;;4405643;32;20066;-68
2022/05/24 05:05:36;;;;;;;0.28;0.28;;;16.80;99.90;;;;;;4387955;32;20393;-69
2022/05/24 05:08:02;;;;;;;0.70;0.70;;;16.80;99.90;;;;;;4384298;32;20057;-69
2022/05/24 05:10:28;;;;;;;0.80;0.80;;;16.90;99.90;;;;;;4375606;32;20142;-70
2022/05/24 05:12:53;;;;;;;1.55;0.82;;;16.80;99.90;;;;;;4380465;32;20418;-69
2022/05/24 05:15:18;;;;;;;1.20;0.57;;;16.90;99.90;;;;;;4382742;32;20086;-69
2022/05/24 05:17:44;;;;;;;0.62;0.50;;;16.90;99.90;;;;;;4377051;32;20084;-70
2022/05/24 05:20:11;;;;;;;7.97;0.60;;;16.90;99.90;;;;;;4332943;32;20526;-70
2022/05/24 05:22:38;;;;;;;0.40;0.40;;;16.90;99.90;;;;;;4326482;32;21083;-70
2022/05/24 05:25:07;;;;;;;0.40;0.40;;;17.00;99.90;;;;;;4319597;32;20359;-70
2022/05/24 05:27:36;;;;;;;0.60;0.60;;;16.90;99.90;;;;;;4330110;32;20508;-69
2022/05/24 05:31:34;;;;;;;0.65;0.65;;;16.90;99.90;;;;;;4309758;32;20503;-69
2022/05/24 05:32:50;;;;;;;0.35;0.35;;;16.70;99.90;;;;;;4324878;32;20369;-69
2022/05/24 05:35:16;;;;;;;0.70;0.60;;;16.70;99.90;;;;;;4328516;32;20377;-69
2022/05/24 05:37:42;;;;;;;0.65;0.62;;;16.70;99.90;;;;;;4342036;32;20883;-69
2022/05/24 05:40:10;;;;;;;0.37;0.37;;;16.70;99.90;;;;;;4339472;32;20355;-69
2022/05/24 05:42:38;;;;;;;0.60;0.60;;;16.70;99.90;;;;;;4353198;32;20507;-70
2022/05/24 05:45:06;;;;;;;0.50;0.50;;;16.70;99.90;;;;;;4363792;32;20128;-70
2022/05/24 05:47:31;;;;;;;1.75;0.70;;;16.70;99.90;;;;;;4394201;32;20089;-70
2022/05/24 05:49:57;;;;;;;0.43;0.43;;;16.70;99.90;;;;;;4375648;32;20125;-69
2022/05/24 05:52:22;;;;;;;2.05;0.52;;;16.70;99.90;;;;;;4376761;32;20287;-69
2022/05/24 05:54:48;;;;;;;1.62;0.70;;;16.80;99.90;;;;;;4387668;32;20105;-70
2022/05/24 05:57:13;;;;;;;0.75;0.43;;;16.70;99.90;;;;;;4385228;32;20844;-69
2022/05/24 05:59:39;;;;;;;0.30;0.30;;;16.80;99.90;;;;;;4365119;32;20121;-69
2022/05/24 06:02:06;;;;;;;2.40;0.70;;;16.70;99.90;;;;;;4352665;32;20343;-69
2022/05/24 06:04:32;;;;;;;0.40;0.40;;;16.80;99.90;;;;;;4338003;32;20342;-69
2022/05/24 06:06:59;;;;;;;0.30;0.30;;;16.90;99.90;;;;;;4370063;32;20827;-70
2022/05/24 06:09:25;;;;;;;0.30;0.30;;;16.80;99.90;;;;;;4376697;32;20121;-69
2022/05/24 06:11:50;;;;;;;1.87;0.98;;;16.90;99.90;;;;;;4372239;32;20518;-69
2022/05/24 06:14:16;;;;;;;0.50;0.50;;;16.80;99.90;;;;;;4379258;32;20219;-70
2022/05/24 06:16:41;;;;;;;0.40;0.40;;;16.90;99.90;;;;;;4371143;32;20707;-70
2022/05/24 06:19:07;;;;;;;0.45;0.45;;;16.90;99.90;;;;;;4366990;32;20811;-70
2022/05/24 06:21:33;;;;;;;1.25;0.80;;;16.90;99.90;;;;;;4376839;32;20101;-70
2022/05/24 06:24:03;;;;;;;0.52;0.43;;;16.90;99.90;;;;;;4385236;32;20446;-70
2022/05/24 06:26:30;;;;;;;0.40;0.40;;;16.90;99.90;;;;;;4392365;32;20112;-69
2022/05/24 06:28:57;;;;;;;0.50;0.50;;;16.90;99.90;;;;;;4378239;32;20081;-69
2022/05/24 06:31:23;;;;;;;0.45;0.45;;;16.90;99.90;;;;;;4358858;32;20274;-69
2022/05/24 06:33:48;;;;;;;0.30;0.30;;;16.90;99.90;;;;;;4365179;32;20121;-69
2022/05/24 06:36:14;;;;;;;0.60;0.60;;;17.00;99.90;;;;;;4369500;32;20824;-71
2022/05/24 06:38:40;;;;;;;0.30;0.30;;;17.00;99.90;;;;;;4372682;32;20553;-69
2022/05/24 06:41:05;;;;;;;0.32;0.32;;;17.10;99.90;;;;;;4377538;32;20879;-70
2022/05/24 06:43:31;;;;;;;0.68;0.40;;;17.10;99.90;;;;;;4383218;32;20106;-69
2022/05/24 06:45:57;;;;;;;0.40;0.40;;;17.10;99.90;;;;;;4377162;32;20101;-69
2022/05/24 06:48:22;;;;;;;0.30;0.30;;;17.10;99.90;;;;;;4367407;32;20130;-69
2022/05/24 06:50:48;;;;;;;0.52;0.47;;;17.20;99.90;;;;;;4370081;32;20196;-70
2022/05/24 06:53:14;;;;;;;0.62;0.62;;;17.30;99.90;;;;;;4368009;32;20201;-70
2022/05/24 06:55:39;;;;;;;3.20;0.57;;;17.30;99.90;;;;;;4384177;32;20196;-70
2022/05/24 06:58:05;;;;;;;0.40;0.40;;;17.40;99.90;;;;;;4388490;32;20105;-70
2022/05/24 07:02:32;;;;;;;0.40;0.40;;;17.50;99.90;;;;;;4369694;32;20467;-70
2022/05/24 07:03:17;;;;;;;0.30;0.30;;;17.50;99.90;;;;;;4347536;32;20176;-70
2022/05/24 07:05:44;;;;;;;0.30;0.30;;;17.60;99.90;;;;;;4380622;32;20224;-70
2022/05/24 07:08:10;;;;;;;0.47;0.40;;;17.70;99.90;;;;;;4379136;32;20386;-70
2022/05/24 07:10:37;;;;;;;0.20;0.20;;;17.80;99.90;;;;;;4377946;32;20522;-70
2022/05/24 07:13:08;;;;;;;0.30;0.30;;;17.90;99.90;;;;;;4378605;32;20097;-70
2022/05/24 07:15:34;;;;;;;0.20;0.20;;;17.90;99.90;;;;;;4391681;32;20640;-70
2022/05/24 07:18:00;;;;;;;0.40;0.40;;;17.80;99.90;;;;;;4376903;32;20135;-70
2022/05/24 07:20:27;;;;;;;0.35;0.35;;;17.80;99.90;;;;;;4380387;32;20518;-71
2022/05/24 07:22:54;;;;;;;0.70;0.70;;;17.90;99.90;;;;;;4377348;32;20448;-70
2022/05/24 07:25:21;;;;;;;0.40;0.40;;;18.10;99.90;;;;;;4386156;32;21086;-69
2022/05/24 07:27:47;;;;;;;0.47;0.47;;;18.30;99.90;;;;;;4382790;32;20148;-70
2022/05/24 07:30:12;;;;;;;0.30;0.30;;;18.30;99.90;;;;;;4353299;32;20159;-71
2022/05/24 07:32:38;;;;;;;0.50;0.50;;;18.20;99.90;;;;;;4352262;32;20710;-71
2022/05/24 07:35:05;;;;;;;0.40;0.40;;;18.10;99.90;;;;;;4339084;32;21241;-71
2022/05/24 07:37:31;;;;;;;0.30;0.30;;;18.00;99.90;;;;;;4358001;32;83800;-71
2022/05/24 07:45:59;;;;;;;0.40;0.40;;;17.70;99.90;;;;;;4375615;32;20378;-71
2022/05/24 07:48:13;;;;;;;0.35;0.35;;;17.60;99.90;;;;;;4364513;32;20109;-71
2022/05/24 07:50:39;;;;;;;0.35;0.35;;;17.80;99.90;;;;;;4369495;32;21606;-72
2022/05/24 07:53:05;;;;;;;0.40;0.40;;;17.90;99.90;;;;;;4360824;32;22069;-72
2022/05/24 07:55:31;;;;;;;0.30;0.30;;;18.00;99.90;;;;;;4365069;32;21060;-72
2022/05/24 07:57:58;;;;;;;0.40;0.40;;;18.10;99.90;;;;;;4365362;32;20763;-71
2022/05/24 08:00:24;;;;;;;0.45;0.45;;;18.20;99.90;;;;;;4349516;32;20765;-71
2022/05/24 08:02:51;;;;;;;0.50;0.50;;;18.50;99.90;;;;;;4344566;32;20405;-71
2022/05/24 08:05:17;;;;;;;0.40;0.40;;;18.70;99.90;;;;;;4339328;32;20325;-72
2022/05/24 08:07:45;;;;;;;0.50;0.50;;;18.70;99.90;;;;;;4359871;32;20089;-72
2022/05/24 08:10:11;;;;;;;0.30;0.30;;;18.50;99.90;;;;;;4370411;32;20206;-72
2022/05/24 08:12:37;;;;;;;0.75;0.75;;;18.40;99.90;;;;;;4386936;32;20068;-71
2022/05/24 08:15:03;;;;;;;0.20;0.20;;;18.30;99.90;;;;;;4380281;32;20675;-72
2022/05/24 08:17:29;;;;;;;0.30;0.30;;;18.20;99.90;;;;;;4388942;32;20421;-72
2022/05/24 08:19:54;;;;;;;0.30;0.30;;;18.10;99.90;;;;;;4378309;32;20089;-71
2022/05/24 08:22:20;;;;;;;0.25;0.25;;;18.00;99.90;;;;;;4383124;32;20486;-71
2022/05/24 08:24:45;;;;;;;0.82;0.82;;;17.80;99.90;;;;;;4377752;32;20874;-71
2022/05/24 08:27:14;;;;;;;0.30;0.30;;;17.70;99.90;;;;;;4371601;32;20173;-71
2022/05/24 08:29:40;;;;;;;0.30;0.30;;;17.70;99.90;;;;;;4367881;32;20190;-70
2022/05/24 08:32:06;;;;;;;0.22;0.22;;;17.70;99.90;;;;;;4358465;32;20219;-72
2022/05/24 08:34:32;;;;;;;0.25;0.25;;;17.80;99.90;;;;;;4329399;32;20255;-71
2022/05/24 08:36:58;;;;;;;0.20;0.20;;;17.80;99.90;;;;;;4353814;32;20323;-71
2022/05/24 08:39:23;;;;;;;0.20;0.20;;;17.80;99.90;;;;;;4376362;32;20082;-71
2022/05/24 08:42:10;;;;;;;0.30;0.30;;;17.70;99.90;;;;;;4374539;32;20160;-71
2022/05/24 08:48:31;;;;;;;0.30;0.30;;;17.70;99.90;;;;;;4366132;32;20098;-72
2022/05/24 08:50:16;;;;;;;0.20;0.20;;;17.80;99.90;;;;;;4348684;32;20105;-72
2022/05/24 08:52:51;;;;;;;0.30;0.30;;;18.00;99.90;;;;;;4368969;32;20601;-73
2022/05/24 08:55:19;;;;;;;0.30;0.30;;;18.20;99.90;;;;;;4371765;32;23195;-70
2022/05/24 08:57:51;;;;;;;0.40;0.40;;;18.50;99.90;;;;;;4378761;32;20105;-70
2022/05/24 09:00:22;;;;;;;0.30;0.30;;;18.70;99.90;;;;;;4349529;32;21138;-71
2022/05/24 09:02:48;;;;;;;0.60;0.60;;;18.90;99.90;;;;;;4342110;32;20349;-71
2022/05/24 09:05:30;;;;;;;2.00;0.37;;;19.10;99.90;;;;;;4342640;32;20138;-71
2022/05/24 09:08:08;;;;;;;0.30;0.30;;;19.20;99.90;;;;;;4359440;32;20121;-71
2022/05/24 09:10:42;;;;;;;0.20;0.20;;;19.10;99.90;;;;;;4371794;32;20571;-70
2022/05/24 09:13:17;;;;;;;0.20;0.20;;;19.20;99.90;;;;;;4374571;32;20312;-70
2022/05/24 09:15:54;;;;;;;0.30;0.30;;;19.40;99.90;;;;;;4369211;32;20459;-71
2022/05/24 09:19:00;;;;;;;0.30;0.30;;;19.50;99.90;;;;;;4359618;32;20547;-70
2022/05/24 09:21:31;;;;;;;1.80;1.02;;;19.70;99.90;;;;;;4344993;32;20109;-70
2022/05/24 09:24:05;;;;;;;0.22;0.22;;;19.70;99.90;;;;;;4358464;32;20187;-70
2022/05/24 09:26:34;;;;;;;0.95;0.73;;;19.60;99.90;;;;;;4370754;32;20093;-71
2022/05/24 09:29:11;;;;;;;0.55;0.40;;;19.70;99.90;;;;;;4374769;32;20097;-71
2022/05/24 09:31:41;;;;;;;0.28;0.28;;;19.90;99.90;;;;;;4345354;32;20232;-71
2022/05/24 09:34:28;;;;;;;0.40;0.40;;;20.10;99.90;;;;;;4321397;32;20177;-71
2022/05/24 09:37:09;;;;;;;0.25;0.25;;;20.40;99.90;;;;;;4361808;32;20500;-71
2022/05/24 09:39:41;;;;;;;7.20;1.30;;;20.60;99.90;;;;;;4380982;32;20184;-70
2022/05/24 09:42:13;;;;;;;0.30;0.30;;;20.80;99.90;;;;;;4383237;32;20101;-71
2022/05/24 09:45:01;;;;;;;0.20;0.20;;;20.80;99.90;;;;;;4383509;32;20537;-71
2022/05/24 09:47:44;;;;;;;0.45;0.45;;;21.20;99.90;;;;;;4380982;32;20325;-70
2022/05/24 09:50:31;;;;;;;0.20;0.20;;;21.30;99.90;;;;;;4383424;32;20610;-71
2022/05/24 09:53:08;;;;;;;0.25;0.25;;;21.20;99.90;;;;;;4363706;32;20367;-71
2022/05/24 09:55:39;;;;;;;0.30;0.30;;;21.20;99.90;;;;;;4381388;32;20321;-71
2022/05/24 09:58:26;;;;;;;0.57;0.40;;;21.50;99.90;;;;;;4384148;32;20262;-72
2022/05/24 10:00:58;;;;;;;0.30;0.30;;;21.60;99.90;;;;;;4348431;32;20084;-71
2022/05/24 10:03:27;;;;;;;0.20;0.20;;;22.00;99.90;;;;;;4350745;32;20792;-72
2022/05/24 10:05:58;;;;;;;0.43;0.43;;;22.00;99.90;;;;;;4369039;32;20948;-70
2022/05/24 10:08:23;;;;;;;;;;;21.90;99.90;;;;;;4382148;32;20231;-71
2022/05/24 10:10:56;;;;;;;0.30;0.30;;;21.80;99.90;;;;;;4384376;32;19992;-72
2022/05/24 10:13:36;;;;;;;0.43;0.43;;;22.00;99.90;;;;;;4387864;32;20081;-72
2022/05/24 10:16:16;;;;;;;0.43;0.40;;;22.20;99.90;;;;;;4385695;32;20085;-73
2022/05/24 10:18:59;;;;;;;1.40;0.85;;;22.20;99.30;;;;;;4360351;32;20408;-73
2022/05/24 10:21:49;;;;;;;0.20;0.20;;;22.60;99.90;;;;;;4365252;32;20129;-73
2022/05/24 10:24:23;;;;;;;0.30;0.30;;;22.30;99.30;;;;;;4370426;32;20886;-73
2022/05/24 10:27:03;;;;;;;0.30;0.30;;;22.00;99.90;;;;;;4376596;32;21873;-72
2022/05/24 10:29:39;;;;;;;0.30;0.30;;;22.20;99.70;;;;;;4365583;32;20298;-74
2022/05/24 10:38:47;;;;;;;0.37;0.37;;;23.10;98.40;;;;;;4365053;32;20602;-72
2022/05/24 10:41:18;;;;;;;0.75;0.75;;;23.00;97.50;;;;;;4365263;32;20098;-72
2022/05/24 10:44:05;;;;;;;0.37;0.37;;;22.90;97.40;;;;;;4390113;32;20070;-72
2022/05/24 10:47:00;;;;;;;0.20;0.20;;;22.80;99.70;;;;;;4383281;32;20634;-72
2022/05/24 10:49:36;;;;;;;0.20;0.20;;;22.80;98.60;;;;;;4374695;32;20262;-72
2022/05/24 10:52:15;;;;;;;0.30;0.30;;;23.10;98.70;;;;;;4364535;32;20160;-71
2022/05/24 10:54:50;;;;;;;0.40;0.40;;;23.50;96.90;;;;;;4358697;32;20468;-72
2022/05/24 10:57:20;;;;;;;0.20;0.20;;;24.30;98.40;;;;;;4368252;32;20189;-72
2022/05/24 10:59:57;;;;;;;0.23;0.23;;;25.20;96.00;;;;;;4359444;32;20385;-70
2022/05/24 11:02:50;;;;;;;0.20;0.20;;;25.20;94.20;;;;;;4350012;32;20268;-70
2022/05/24 11:05:22;;;;;;;0.40;0.40;;;24.80;93.90;;;;;;4346742;32;21035;-70
2022/05/24 11:07:54;;;;;;;0.10;0.10;;;24.10;94.40;;;;;;4372827;32;20862;-70
2022/05/24 11:10:28;;;;;;;0.55;0.30;;;23.90;95.00;;;;;;4376638;32;20514;-70
2022/05/24 11:12:59;;;;;;;0.75;0.50;;;23.80;95.40;;;;;;4381773;32;20655;-72
2022/05/24 11:15:33;;;;;;;0.30;0.30;;;23.50;95.70;;;;;;4385093;32;20637;-72
2022/05/24 11:18:03;;;;;;;0.37;0.37;;;23.20;96.30;;;;;;4384436;32;20168;-72
2022/05/24 11:20:32;;;;;;;;;;;22.70;97.80;;;;;;4389378;32;20867;-71
2022/05/24 11:23:21;;;;;;;0.30;0.30;;;22.40;96.90;;;;;;4387118;32;19983;-72
2022/05/24 11:25:53;;;;;;;0.28;0.28;;;22.50;97.80;;;;;;4377557;32;20095;-72
2022/05/24 11:28:32;;;;;;;0.52;0.47;;;22.70;97.10;;;;;;4374976;32;20359;-70
2022/05/24 11:31:37;;;;;;;0.25;0.25;;;22.60;96.40;;;;;;4379400;32;20501;-71
2022/05/24 11:34:18;;;;;;;0.28;0.28;;;22.50;96.90;;;;;;4360981;32;20188;-72
2022/05/24 11:36:49;;;;;;;0.20;0.20;;;22.50;98.20;;;;;;4381791;32;20602;-71
2022/05/24 11:39:34;;;;;;;0.20;0.20;;;22.50;99.00;;;;;;4370729;32;20692;-71
2022/05/24 11:42:21;;;;;;;0.20;0.20;;;22.40;97.10;;;;;;4380009;32;20430;-71
2022/05/24 11:44:47;;;;;;;0.30;0.30;;;22.30;97.30;;;;;;4363500;32;20941;-72
2022/05/24 11:47:35;;;;;;;0.30;0.30;;;22.20;97.30;;;;;;4381219;32;20090;-72
2022/05/24 11:50:30;;;;;;;0.20;0.20;;;22.10;98.10;;;;;;4365715;32;20827;-71
2022/05/24 11:53:07;;;;;;;0.40;0.40;;;22.00;98.60;;;;;;4366960;32;20101;-72
2022/05/24 11:55:55;;;;;;;0.17;0.17;;;22.10;98.10;;;;;;4380193;32;20280;-72
2022/05/24 11:58:23;;;;;;;0.30;0.30;;;22.10;98.00;;;;;;4364863;32;20552;-72
2022/05/24 12:01:17;;;;;;;0.30;0.30;;;22.20;97.40;;;;;;4388872;32;20776;-72
2022/05/24 12:07:55;;;;;;;16.80;0.80;;;22.40;97.30;;;;;;4361693;32;20069;-72
2022/05/24 12:10:31;;;;;;;0.20;0.20;;;22.30;97.90;;;;;;4357842;32;20093;-72
2022/05/24 12:13:14;;;;;;;0.30;0.30;;;22.20;98.60;;;;;;4370799;32;20805;-71
2022/05/24 12:15:43;;;;;;;0.70;0.70;;;21.90;98.00;;;;;;4387021;32;20409;-72
2022/05/24 12:18:11;;;;;;;0.20;0.20;;;21.80;98.40;;;;;;4377330;32;20413;-72
2022/05/24 12:20:39;;;;;;;0.28;0.28;;;21.80;98.90;;;;;;4385243;32;20150;-71
2022/05/24 12:23:09;;;;;;;0.30;0.30;;;21.70;98.30;;;;;;4375558;32;20187;-71
2022/05/24 12:25:58;;;;;;;0.30;0.30;;;21.70;98.80;;;;;;4363163;32;20104;-72
2022/05/24 12:28:27;;;;;;;0.20;0.20;;;21.60;99.10;;;;;;4335785;32;20943;-72
2022/05/24 12:30:57;;;;;;;0.32;0.32;;;21.50;98.80;;;;;;4336158;32;20628;-72
2022/05/24 12:33:33;;;;;;;0.25;0.25;;;21.60;98.80;;;;;;4352123;32;20324;-72
2022/05/24 12:36:31;;;;;;;0.35;0.35;;;21.60;99.80;;;;;;4354705;32;21361;-72
2022/05/24 12:39:00;;;;;;;0.50;0.50;;;21.50;99.90;;;;;;4349384;32;20666;-74
2022/05/24 12:41:49;;;;;;;0.30;0.30;;;21.60;99.80;;;;;;4376531;32;20118;-74
2022/05/24 12:44:18;;;;;;;0.20;0.20;;;21.90;99.90;;;;;;4388359;32;20334;-70
2022/05/24 12:46:51;;;;;;;0.20;0.20;;;22.40;99.80;;;;;;4389957;32;20093;-70
2022/05/24 12:49:21;;;;;;;0.20;0.20;;;22.90;99.50;;;;;;4379955;32;20053;-70
2022/05/24 12:51:47;;;;;;;0.20;0.20;;;23.30;97.00;;;;;;4390319;32;20138;-70
2022/05/24 12:54:16;;;;;;;0.25;0.25;;;24.30;96.70;;;;;;4370671;32;20389;-71
2022/05/24 12:56:54;;;;;;;0.20;0.20;;;25.40;95.90;;;;;;4377757;32;20118;-69
2022/05/24 12:59:34;;;;;;;0.10;0.10;;;26.00;92.70;;;;;;4367034;32;20877;-70
2022/05/24 13:02:18;;;;;;;0.20;0.20;;;25.80;92.50;;;;;;4372801;32;21003;-70
2022/05/24 13:04:44;;;;;;;0.65;0.40;;;24.90;93.40;;;;;;4373566;32;20069;-71
2022/05/24 13:07:24;;;;;;;0.20;0.20;;;24.10;94.50;;;;;;4386413;32;20049;-70
2022/05/24 13:09:50;;;;;;;0.52;0.37;;;23.50;95.20;;;;;;4375597;32;20089;-70
2022/05/24 13:12:16;;;;;;;0.20;0.20;;;23.10;97.70;;;;;;4389242;32;20138;-70
2022/05/24 13:14:51;;;;;;;0.40;0.30;;;23.00;96.80;;;;;;4394547;32;20192;-70
2022/05/24 13:17:20;;;;;;;0.10;0.10;;;22.80;96.60;;;;;;4398525;32;20213;-70
2022/05/24 13:20:06;;;;;;;0.20;0.20;;;22.60;96.50;;;;;;4387313;32;20089;-69
2022/05/24 13:22:50;;;;;;;0.10;0.10;;;22.40;96.30;;;;;;4383398;32;20853;-70
2022/05/24 13:25:19;;;;;;;0.20;0.20;;;22.20;96.90;;;;;;4369360;32;20096;-70
2022/05/24 13:27:53;;;;;;;0.30;0.30;;;22.20;97.00;;;;;;4375011;32;20715;-70
2022/05/24 13:33:42;;;;;;;0.20;0.20;;;21.90;97.60;;;;;;4362391;32;20761;-70